Aeroporto :
LOGIN :

Iscrizione | Disclaimer

   EN    FR    IT 

 










Sommario :    VFR   VFR Marginale   IFR   IFR Intensivo   IFR Molto Intensivo
Visibilità : 
Base nubi : 
>= 8 km
>= 3000ft
5 / 8 km
1000 / 3000 ft
1500m / 5 km
500 / 1000 ft
800 / 1500m
200 / 500 ft
< 800m
< 200 ft
Simboli :   Temporali  Nebbia  Neve Forte  Precipitazioni Forti  Vento > 20 kt
SIGMETs :   Varie  Temporali  Ghiacco  Turbolenza  Onda orograficha  Ceneri Vulcaniche






- Altitudine del aeroporto : 408 ft
- Codice IATA : KWG


UKDR - Lozuvatka

ULTIMO METAR :
  • 020700Z 25002MPS 200V280 CAVOK 07/M10 Q1017 R36/09//70 NOSIG

METARs OBSOLETI :
  • 020630Z 27003MPS CAVOK 05/M09 Q1017 R36/09//70 NOSIG
  • 020600Z 25002MPS CAVOK 03/M10 Q1017 R36/09//70 NOSIG
  • 020530Z 24002MPS CAVOK 01/M11 Q1017 R36/09//70 NOSIG
  • 020500Z 23002MPS CAVOK M01/M10 Q1017 R36/09//70 NOSIG
  • 020430Z 21001MPS CAVOK M02/M10 Q1017 R36/09//70 NOSIG

TAF TAF UKDR
Valido dal 02 a 06 ore il 03 a 06 ore UTC


020502Z 0206/0306 25005MPS CAVOK TX10/0212Z TN00/0304Z
BECMG 0216/0218 VRB01MPS



MetMap, La meteo Aeronautica in un colpo d'occhio ! - Copyright ORBIFLY Dicembre 2007 - Disclaimer

ORBIFLY MET'MAP TEAM :

Programmazione e sviluppo : Alexandra Zaïnal
Concezione : Baudouin d'Aumeries
Aiuto per la programmazione : Marc-Olivier Méhu
Supporto tecnico e logistico : Manuel Goepfert
Aiuto per la traduzione : Arnaldo La Scala

Contatto : metmap@orbifly.com




FONTI E CREDITI :

   NOAA